首页
METAR-TAF:

METAR-TAF

机场 :

Mason City Municipal Airport

麦逊城, 艾奥瓦州, 美国

纬度: 43-09-28N, 经度: 093-19-53W, 海拔: 370米

当前天气观测

该预报发布于1小时和9分钟前的08:53 UTC
风速22节,风向西北,有时为30节阵风
温度 2°C
湿度 93%
气压 994 hPa
能見度: 8.0公里
阴天层高于500英尺
轻雾

METAR: KMCW 290853Z AUTO 31022G30KT 5SM BR OVC005 02/01 A2936 RMK AO2 PK WND 32032/0824 SLP942 60001 T00170006 53018

时间: 05:02 (10:02 UTC)

预报

该预报发布于4小时和42分钟前的05:20 UTC
预报有效从29日的 06点(UTC)到 30日的 06点(UTC)
风速3节,风向东转东南
能見度: 10公里
多云层高于3000英尺
阴天层高于4000英尺
从 29日的 0900点(UTC)
风速21节,风向西转西北,有时为33节阵风
能見度: 6.4公里
阴天层高于800英尺
小雨, 轻雾
从 29日的 1300点(UTC)
风速27节,风向西北,有时为41节阵风
能見度: 10公里
阴天层高于800英尺
从 29日的 1600点(UTC)
风速24节,风向西北,有时为38节阵风
能見度: 10公里
多云层高于1500英尺
从 30日的 0000点(UTC)
风速16节,风向西北,有时为24节阵风
能見度: 10公里
散云层高于3500英尺

TAF: KMCW 290520Z 2906/3006 11003KT P6SM BKN030 OVC040 FM290900 30021G33KT 4SM -RA BR OVC008 FM291300 31027G41KT P6SM OVC008 FM291600 31024G38KT P6SM BKN015 FM300000 32016G24KT P6SM SCT035

超过4000个机场的气象观测和天气预报(METAR&TAF报告)。

可查询的气象台以黄色和红色小点在地图上表示。

将鼠标移到小点上方,可查看气象台名称。

然后点击查看天气观测和预报。

如需切换地图:点击带黑十字的绿色按钮放大地图;点击带横线的绿色按钮缩小地图;或者点击绿色箭头查看邻近地区的地图。


METAR-TAF: